Time;durP1;ratioP1;P1;durP2;ratioP2;P2;SDS_P1;SDS_P2;PMS_P1;PMS_P2;Temp;Humidity;BMP_temperature;BMP_pressure;BME280_temperature;BME280_humidity;BME280_pressure;Samples;Min_cycle;Max_cycle;Signal;HPM_P1;HPM_P2
2022/04/23 00:05:02;;;;;;;;;;;;;;;;;;20998458;28;19967;-60
2022/04/23 00:15:06;;;;;;;;;;;;;;;;;;20998241;28;19921;-60
2022/04/23 00:25:07;;;;;;;;;;;;;;;;;;20997256;28;19928;-62
2022/04/23 00:35:09;;;;;;;;;;;;;;;;;;20996065;28;20062;-62
2022/04/23 00:45:10;;;;;;;;;;;;;;;;;;20995742;28;20274;-63
2022/04/23 00:55:12;;;;;;;;;;;;;;;;;;20978260;28;20369;-62
2022/04/23 01:05:14;;;;;;;;;;;;;;;;;;20995054;28;19920;-61
2022/04/23 01:15:16;;;;;;;;;;;;;;;;;;20995151;28;20374;-61
2022/04/23 01:25:17;;;;;;;;;;;;;;;;;;20995322;28;19967;-65
2022/04/23 01:35:23;;;;;;;;;;;;;;;;;;20994399;28;19920;-63
2022/04/23 01:45:29;;;;;;;;;;;;;;;;;;21003429;28;19927;-63
2022/04/23 01:55:40;;;;;;;;;;;;;;;;;;21007979;28;19928;-63
2022/04/23 02:05:47;;;;;;;;;;;;;;;;;;21007256;28;19920;-62
2022/04/23 02:15:50;;;;;;;;;;;;;;;;;;21007369;28;19977;-63
2022/04/23 02:25:54;;;;;;;;;;;;;;;;;;21006533;28;19920;-62
2022/04/23 02:35:58;;;;;;;;;;;;;;;;;;21005376;28;20352;-64
2022/04/23 02:46:01;;;;;;;;;;;;;;;;;;21003760;28;19973;-67
2022/04/23 02:56:05;;;;;;;;;;;;;;;;;;21002769;28;19924;-62
2022/04/23 03:06:07;;;;;;;;;;;;;;;;;;21003031;28;19973;-64
2022/04/23 03:16:09;;;;;;;;;;;;;;;;;;21002414;28;19963;-68
2022/04/23 03:26:13;;;;;;;;;;;;;;;;;;21000635;28;19927;-63
2022/04/23 03:36:34;;;;;;;;;;;;;;;;;;20999050;28;19974;-64
2022/04/23 03:46:49;;;;;;;;;;;;;;;;;;20999216;28;20271;-60
2022/04/23 03:56:54;;;;;;;;;;;;;;;;;;20998240;28;19920;-61
2022/04/23 04:07:00;;;;;;;;;;;;;;;;;;20997116;28;19928;-61
2022/04/23 04:17:04;;;;;;;;;;;;;;;;;;20997466;28;19973;-65
2022/04/23 04:27:11;;;;;;;;;;;;;;;;;;20997351;28;19946;-61
2022/04/23 04:37:14;;;;;;;;;;;;;;;;;;20996934;28;20434;-62
2022/04/23 04:47:16;;;;;;;;;;;;;;;;;;20995726;28;20014;-61
2022/04/23 04:57:19;;;;;;;;;;;;;;;;;;20995908;28;19927;-61
2022/04/23 05:07:21;;;;;;;;;;;;;;;;;;20995268;28;19931;-64
2022/04/23 05:17:25;;;;;;;;;;;;;;;;;;21003139;28;19982;-63
2022/04/23 05:27:27;;;;;;;;;;;;;;;;;;21010225;28;20301;-63
2022/04/23 05:37:29;;;;;;;;;;;;;;;;;;21009884;28;20263;-61
2022/04/23 05:47:31;;;;;;;;;;;;;;;;;;21008858;28;19924;-64
2022/04/23 05:57:32;;;;;;;;;;;;;;;;;;21008339;28;19927;-61
2022/04/23 06:07:34;;;;;;;;;;;;;;;;;;21007100;28;19920;-61
2022/04/23 06:17:36;;;;;;;;;;;;;;;;;;21006322;28;19929;-62
2022/04/23 06:27:38;;;;;;;;;;;;;;;;;;21005531;28;19921;-62
2022/04/23 06:37:40;;;;;;;;;;;;;;;;;;21005467;28;19920;-64
2022/04/23 06:47:42;;;;;;;;;;;;;;;;;;20986003;28;19974;-63
2022/04/23 06:57:44;;;;;;;;;;;;;;;;;;20985695;28;20266;-63
2022/04/23 07:07:46;;;;;;;;;;;;;;;;;;21004088;28;19943;-63
2022/04/23 07:17:48;;;;;;;;;;;;;;;;;;21003365;28;20062;-68
2022/04/23 07:27:51;;;;;;;;;;;;;;;;;;21000943;28;19924;-62
2022/04/23 07:37:53;;;;;;;;;;;;;;;;;;21000426;28;19928;-66
2022/04/23 07:47:55;;;;;;;;;;;;;;;;;;20999361;28;19928;-63
2022/04/23 07:57:58;;;;;;;;;;;;;;;;;;20997829;28;19998;-62
2022/04/23 08:08:00;;;;;;;;;;;;;;;;;;20997514;28;19971;-61
2022/04/23 08:18:03;;;;;;;;;;;;;;;;;;20938560;28;19921;-60
2022/04/23 08:38:26;;;;;;;;;;;;;;;;;;20913008;28;20370;-59
2022/04/23 08:48:29;;;;;;;;;;;;;;;;;;20915142;28;20418;-65
2022/04/23 08:58:31;;;;;;;;;;;;;;;;;;20938702;28;20371;-59
2022/04/23 09:08:33;;;;;;;;;;;;;;;;;;21011145;28;19974;-62
2022/04/23 09:28:57;;;;;;;;;;;;;;;;;;21021415;28;19921;-61
2022/04/23 09:38:59;;;;;;;;;;;;;;;;;;21020772;28;19920;-61
2022/04/23 09:49:02;;;;;;;;;;;;;;;;;;21019669;28;19947;-60
2022/04/23 09:59:06;;;;;;;;;;;;;;;;;;21019772;28;19970;-68
2022/04/23 10:09:08;;;;;;;;;;;;;;;;;;21005501;28;20366;-62
2022/04/23 10:19:10;;;;;;;;;;;;;;;;;;21005985;28;20293;-59
2022/04/23 10:29:15;;;;;;;;;;;;;;;;;;20986437;28;19920;-61
2022/04/23 10:39:18;;;;;;;;;;;;;;;;;;21003747;28;19928;-62
2022/04/23 10:49:20;;;;;;;;;;;;;;;;;;21001860;28;20313;-61
2022/04/23 10:59:22;;;;;;;;;;;;;;;;;;21002016;28;19927;-60
2022/04/23 11:19:58;;;;;;;;;;;;;;;;;;20745068;28;20652;-60
2022/04/23 11:30:03;;;;;;;;;;;;;;;;;;20744345;28;20368;-69
2022/04/23 11:40:05;;;;;;;;;;;;;;;;;;20718762;28;19928;-65
2022/04/23 11:50:07;;;;;;;;;;;;;;;;;;20826754;28;19924;-64
2022/04/23 12:00:09;;;;;;;;;;;;;;;;;;20999393;28;19940;-66
2022/04/23 12:10:12;;;;;;;;;;;;;;;;;;20997080;28;19963;-63
2022/04/23 12:20:14;;;;;;;;;;;;;;;;;;20993487;28;19952;-62
2022/04/23 12:40:46;;;;;;;;;;;;;;;;;;20911830;28;19928;-64
2022/04/23 12:50:50;;;;;;;;;;;;;;;;;;20990688;28;19960;-60
2022/04/23 13:00:52;;;;;;;;;;;;;;;;;;20994789;28;19967;-59
2022/04/23 13:10:55;;;;;;;;;;;;;;;;;;20993753;28;19924;-58
2022/04/23 13:20:57;;;;;;;;;;;;;;;;;;20995607;28;19951;-59
2022/04/23 13:30:59;;;;;;;;;;;;;;;;;;20994043;28;19928;-59
2022/04/23 13:41:02;;;;;;;;;;;;;;;;;;21004577;28;20386;-58
2022/04/23 13:51:04;;;;;;;;;;;;;;;;;;21007773;28;19924;-58
2022/04/23 14:01:06;;;;;;;;;;;;;;;;;;21007711;28;19920;-57
2022/04/23 14:11:08;;;;;;;;;;;;;;;;;;21006658;28;20366;-59
2022/04/23 14:21:10;;;;;;;;;;;;;;;;;;21005792;28;19920;-58
2022/04/23 14:31:12;;;;;;;;;;;;;;;;;;21004447;28;20015;-60
2022/04/23 14:41:14;;;;;;;;;;;;;;;;;;21003444;28;19968;-59
2022/04/23 15:01:37;;;;;;;;;;;;;;;;;;21003890;28;20358;-59
2022/04/23 15:11:39;;;;;;;;;;;;;;;;;;20985095;28;20385;-58
2022/04/23 15:21:41;;;;;;;;;;;;;;;;;;21002011;28;19930;-58
2022/04/23 15:31:44;;;;;;;;;;;;;;;;;;20967553;28;19926;-61
2022/04/23 15:41:46;;;;;;;;;;;;;;;;;;20940563;28;19925;-62
2022/04/23 15:51:48;;;;;;;;;;;;;;;;;;20916390;28;19920;-70
2022/04/23 16:01:50;;;;;;;;;;;;;;;;;;20914263;28;19925;-63
2022/04/23 16:11:52;;;;;;;;;;;;;;;;;;20916892;28;19929;-73
2022/04/23 16:21:54;;;;;;;;;;;;;;;;;;20917841;28;19928;-70
2022/04/23 16:31:56;;;;;;;;;;;;;;;;;;20916308;28;19928;-60
2022/04/23 16:52:19;;;;;;;;;;;;;;;;;;20914475;28;20267;-62
2022/04/23 17:02:21;;;;;;;;;;;;;;;;;;20954500;28;19932;-59
2022/04/23 17:12:22;;;;;;;;;;;;;;;;;;20948288;28;20003;-60
2022/04/23 17:22:24;;;;;;;;;;;;;;;;;;20927731;28;19921;-59
2022/04/23 17:32:26;;;;;;;;;;;;;;;;;;20927484;28;19921;-60
2022/04/23 17:42:28;;;;;;;;;;;;;;;;;;20924487;28;19924;-66
2022/04/23 17:52:30;;;;;;;;;;;;;;;;;;20924966;28;20018;-63
2022/04/23 18:12:52;;;;;;;;;;;;;;;;;;21005919;28;19924;-58
2022/04/23 18:22:54;;;;;;;;;;;;;;;;;;21005061;28;19921;-62
2022/04/23 18:32:55;;;;;;;;;;;;;;;;;;20987483;28;19920;-62
2022/04/23 18:42:57;;;;;;;;;;;;;;;;;;21004686;28;19940;-61
2022/04/23 18:52:59;;;;;;;;;;;;;;;;;;21003291;28;19928;-62
2022/04/23 19:03:01;;;;;;;;;;;;;;;;;;21002980;28;19920;-60
2022/04/23 19:13:02;;;;;;;;;;;;;;;;;;21003212;28;20352;-60
2022/04/23 19:33:24;;;;;;;;;;;;;;;;;;21000701;28;19978;-61
2022/04/23 19:43:26;;;;;;;;;;;;;;;;;;20998514;28;19920;-60
2022/04/23 19:53:28;;;;;;;;;;;;;;;;;;20998387;28;19921;-60
2022/04/23 20:03:29;;;;;;;;;;;;;;;;;;20996745;28;19970;-61
2022/04/23 20:13:31;;;;;;;;;;;;;;;;;;20996929;28;19920;-62
2022/04/23 20:23:36;;;;;;;;;;;;;;;;;;20995468;28;19956;-62
2022/04/23 20:33:37;;;;;;;;;;;;;;;;;;20995134;28;19928;-61
2022/04/23 20:43:40;;;;;;;;;;;;;;;;;;20994156;28;19942;-61
2022/04/23 20:53:42;;;;;;;;;;;;;;;;;;20996501;28;20039;-61
2022/04/23 21:03:44;;;;;;;;;;;;;;;;;;20994696;28;19920;-62
2022/04/23 21:13:46;;;;;;;;;;;;;;;;;;20994716;28;19924;-59
2022/04/23 21:23:48;;;;;;;;;;;;;;;;;;20994474;28;19924;-60
2022/04/23 21:33:50;;;;;;;;;;;;;;;;;;20993855;28;19966;-59
2022/04/23 21:54:13;;;;;;;;;;;;;;;;;;20993489;28;20292;-60
2022/04/23 22:04:14;;;;;;;;;;;;;;;;;;21007079;28;19920;-60
2022/04/23 22:14:16;;;;;;;;;;;;;;;;;;21006576;28;19928;-59
2022/04/23 22:24:17;;;;;;;;;;;;;;;;;;21005640;28;19924;-62
2022/04/23 22:34:19;;;;;;;;;;;;;;;;;;21005954;28;20370;-60
2022/04/23 22:44:22;;;;;;;;;;;;;;;;;;21005065;28;19921;-61
2022/04/23 22:54:24;;;;;;;;;;;;;;;;;;21004926;28;19986;-67
2022/04/23 23:04:25;;;;;;;;;;;;;;;;;;20986088;28;19920;-66
2022/04/23 23:14:27;;;;;;;;;;;;;;;;;;21003130;28;19943;-70
2022/04/23 23:24:28;;;;;;;;;;;;;;;;;;21002520;28;19927;-63
2022/04/23 23:34:30;;;;;;;;;;;;;;;;;;21000881;28;19924;-60
2022/04/23 23:44:31;;;;;;;;;;;;;;;;;;20999176;28;19966;-61
2022/04/23 23:54:33;;;;;;;;;;;;;;;;;;20999127;28;19925;-61
